Ried, Austria
Current Conditions -  °F | °C
As of 10:20 PM on Saturday 25 Oct 2014 (Local Time) from LOWL Reporting Station
Broken Clouds Broken Clouds  
Wind Chill: 43°   Ceiling: 1300
Heat Index: 43°   Visibility: 4mi
Dew Point: 41°   Wind: 2mph
Humidity: 93%   Direction: 250°WSW
Pressure: 30.27"   Gusts: NA
Location:  48.21°N, 13.48°E
Report Text: LOWL 252020Z 25002KT 6000 FEW008 BKN013 06/05 Q1025 TEMPO 4000 BKN017
Loading
Personal Weather Stations






























Interactive Weather Map
Tropical Storm Tracking
New forecast layout! Learn more

10-Day Weather Forecast

Advertisements
Track Severe Weather on mobile